sensor_id;sensor_type;location;lat;lon;timestamp;temperature;humidity
3944;DHT22;1986;52.546;13.428;2023-04-01T00:01:10;9.80;99.90
3944;DHT22;1986;52.546;13.428;2023-04-01T00:03:39;9.80;99.90
3944;DHT22;1986;52.546;13.428;2023-04-01T00:06:06;9.80;99.90
3944;DHT22;1986;52.546;13.428;2023-04-01T00:08:33;9.80;99.90
3944;DHT22;1986;52.546;13.428;2023-04-01T00:11:01;9.80;99.90
3944;DHT22;1986;52.546;13.428;2023-04-01T00:13:28;9.80;99.90
3944;DHT22;1986;52.546;13.428;2023-04-01T00:15:56;9.80;99.90
3944;DHT22;1986;52.546;13.428;2023-04-01T00:18:25;9.80;99.90
3944;DHT22;1986;52.546;13.428;2023-04-01T00:20:54;9.80;99.90
3944;DHT22;1986;52.546;13.428;2023-04-01T00:23:21;9.80;99.90
3944;DHT22;1986;52.546;13.428;2023-04-01T00:25:48;9.80;99.90
3944;DHT22;1986;52.546;13.428;2023-04-01T00:28:18;9.80;99.90
3944;DHT22;1986;52.546;13.428;2023-04-01T00:30:48;9.80;99.90
3944;DHT22;1986;52.546;13.428;2023-04-01T00:33:16;9.80;99.90
3944;DHT22;1986;52.546;13.428;2023-04-01T00:35:43;9.80;99.90
3944;DHT22;1986;52.546;13.428;2023-04-01T00:38:10;9.80;99.90
3944;DHT22;1986;52.546;13.428;2023-04-01T00:40:40;9.80;99.90
3944;DHT22;1986;52.546;13.428;2023-04-01T00:43:11;9.80;99.90
3944;DHT22;1986;52.546;13.428;2023-04-01T00:45:42;9.80;99.90
3944;DHT22;1986;52.546;13.428;2023-04-01T00:48:11;9.80;99.90
3944;DHT22;1986;52.546;13.428;2023-04-01T00:50:41;9.80;99.90
3944;DHT22;1986;52.546;13.428;2023-04-01T00:53:11;9.80;99.90
3944;DHT22;1986;52.546;13.428;2023-04-01T00:55:41;9.90;99.90
3944;DHT22;1986;52.546;13.428;2023-04-01T00:58:15;9.90;99.90
3944;DHT22;1986;52.546;13.428;2023-04-01T01:00:44;9.90;99.90
3944;DHT22;1986;52.546;13.428;2023-04-01T01:03:12;9.90;99.90
3944;DHT22;1986;52.546;13.428;2023-04-01T01:06:11;9.90;99.90
3944;DHT22;1986;52.546;13.428;2023-04-01T01:09:06;9.90;99.90
3944;DHT22;1986;52.546;13.428;2023-04-01T01:11:40;9.90;99.90
3944;DHT22;1986;52.546;13.428;2023-04-01T01:14:16;10.00;99.90
3944;DHT22;1986;52.546;13.428;2023-04-01T01:16:52;10.00;99.90
3944;DHT22;1986;52.546;13.428;2023-04-01T01:19:40;10.00;99.90
3944;DHT22;1986;52.546;13.428;2023-04-01T01:22:35;10.00;99.90
3944;DHT22;1986;52.546;13.428;2023-04-01T01:25:18;10.00;99.90
3944;DHT22;1986;52.546;13.428;2023-04-01T01:27:57;10.00;99.90
3944;DHT22;1986;52.546;13.428;2023-04-01T01:30:43;10.00;99.90
3944;DHT22;1986;52.546;13.428;2023-04-01T01:33:25;10.00;99.90
3944;DHT22;1986;52.546;13.428;2023-04-01T01:35:59;10.00;99.90
3944;DHT22;1986;52.546;13.428;2023-04-01T01:38:31;10.10;99.90
3944;DHT22;1986;52.546;13.428;2023-04-01T01:40:59;10.00;99.90
3944;DHT22;1986;52.546;13.428;2023-04-01T01:43:30;10.10;99.90
3944;DHT22;1986;52.546;13.428;2023-04-01T01:46:01;10.00;99.90
3944;DHT22;1986;52.546;13.428;2023-04-01T01:48:31;10.10;99.90
3944;DHT22;1986;52.546;13.428;2023-04-01T01:51:00;10.00;99.90
3944;DHT22;1986;52.546;13.428;2023-04-01T01:53:27;10.00;99.90
3944;DHT22;1986;52.546;13.428;2023-04-01T01:55:54;10.00;99.90
3944;DHT22;1986;52.546;13.428;2023-04-01T01:58:25;10.00;99.90
3944;DHT22;1986;52.546;13.428;2023-04-01T02:00:55;10.00;99.90
3944;DHT22;1986;52.546;13.428;2023-04-01T02:03:25;10.00;99.90
3944;DHT22;1986;52.546;13.428;2023-04-01T02:05:55;10.00;99.90
3944;DHT22;1986;52.546;13.428;2023-04-01T02:08:26;10.00;99.90
3944;DHT22;1986;52.546;13.428;2023-04-01T02:10:57;10.00;99.90
3944;DHT22;1986;52.546;13.428;2023-04-01T02:13:29;10.00;99.90
3944;DHT22;1986;52.546;13.428;2023-04-01T02:16:01;10.00;99.90
3944;DHT22;1986;52.546;13.428;2023-04-01T02:18:31;10.00;99.90
3944;DHT22;1986;52.546;13.428;2023-04-01T02:21:00;10.00;99.90
3944;DHT22;1986;52.546;13.428;2023-04-01T02:23:32;9.90;99.90
3944;DHT22;1986;52.546;13.428;2023-04-01T02:26:00;9.90;99.90
3944;DHT22;1986;52.546;13.428;2023-04-01T02:28:28;9.80;99.90
3944;DHT22;1986;52.546;13.428;2023-04-01T02:30:57;9.80;99.90
3944;DHT22;1986;52.546;13.428;2023-04-01T02:33:27;9.80;99.90
3944;DHT22;1986;52.546;13.428;2023-04-01T02:35:55;9.80;99.90
3944;DHT22;1986;52.546;13.428;2023-04-01T02:38:21;9.80;99.90
3944;DHT22;1986;52.546;13.428;2023-04-01T02:40:51;9.80;99.90
3944;DHT22;1986;52.546;13.428;2023-04-01T02:43:22;9.80;99.90
3944;DHT22;1986;52.546;13.428;2023-04-01T02:45:49;9.80;99.90
3944;DHT22;1986;52.546;13.428;2023-04-01T02:48:19;9.80;99.90
3944;DHT22;1986;52.546;13.428;2023-04-01T02:50:46;9.80;99.90
3944;DHT22;1986;52.546;13.428;2023-04-01T02:53:13;9.90;99.90
3944;DHT22;1986;52.546;13.428;2023-04-01T02:55:40;9.90;99.90
3944;DHT22;1986;52.546;13.428;2023-04-01T02:58:08;9.90;99.90
3944;DHT22;1986;52.546;13.428;2023-04-01T03:00:36;9.90;99.90
3944;DHT22;1986;52.546;13.428;2023-04-01T03:03:03;9.90;99.90
3944;DHT22;1986;52.546;13.428;2023-04-01T03:05:30;9.90;99.90
3944;DHT22;1986;52.546;13.428;2023-04-01T03:07:57;9.90;99.90
3944;DHT22;1986;52.546;13.428;2023-04-01T03:10:24;9.90;99.90
3944;DHT22;1986;52.546;13.428;2023-04-01T03:12:51;9.90;99.90
3944;DHT22;1986;52.546;13.428;2023-04-01T03:15:19;9.90;99.90
3944;DHT22;1986;52.546;13.428;2023-04-01T03:17:46;9.90;99.90
3944;DHT22;1986;52.546;13.428;2023-04-01T03:20:14;9.90;99.90
3944;DHT22;1986;52.546;13.428;2023-04-01T03:22:41;9.90;99.90
3944;DHT22;1986;52.546;13.428;2023-04-01T03:25:09;9.90;99.90
3944;DHT22;1986;52.546;13.428;2023-04-01T03:27:36;9.90;99.90
3944;DHT22;1986;52.546;13.428;2023-04-01T03:30:04;9.90;99.90
3944;DHT22;1986;52.546;13.428;2023-04-01T03:32:33;9.90;99.90
3944;DHT22;1986;52.546;13.428;2023-04-01T03:35:00;9.90;99.90
3944;DHT22;1986;52.546;13.428;2023-04-01T03:37:27;10.00;99.90
3944;DHT22;1986;52.546;13.428;2023-04-01T03:39:54;10.00;99.90
3944;DHT22;1986;52.546;13.428;2023-04-01T03:42:21;10.00;99.90
3944;DHT22;1986;52.546;13.428;2023-04-01T03:44:48;10.00;99.90
3944;DHT22;1986;52.546;13.428;2023-04-01T03:47:15;10.00;99.90
3944;DHT22;1986;52.546;13.428;2023-04-01T03:49:43;10.00;99.90
3944;DHT22;1986;52.546;13.428;2023-04-01T03:52:11;10.00;99.90
3944;DHT22;1986;52.546;13.428;2023-04-01T03:54:38;10.10;99.90
3944;DHT22;1986;52.546;13.428;2023-04-01T03:57:05;10.10;99.90
3944;DHT22;1986;52.546;13.428;2023-04-01T03:59:33;10.00;99.90
3944;DHT22;1986;52.546;13.428;2023-04-01T04:01:59;10.00;99.90
3944;DHT22;1986;52.546;13.428;2023-04-01T04:04:27;10.00;99.90
3944;DHT22;1986;52.546;13.428;2023-04-01T04:06:55;10.10;99.90
3944;DHT22;1986;52.546;13.428;2023-04-01T04:09:23;10.00;99.90
3944;DHT22;1986;52.546;13.428;2023-04-01T04:11:50;10.00;99.90
3944;DHT22;1986;52.546;13.428;2023-04-01T04:14:17;10.00;99.90
3944;DHT22;1986;52.546;13.428;2023-04-01T04:16:44;10.00;99.90
3944;DHT22;1986;52.546;13.428;2023-04-01T04:19:11;9.90;99.90
3944;DHT22;1986;52.546;13.428;2023-04-01T04:21:39;10.00;99.90
3944;DHT22;1986;52.546;13.428;2023-04-01T04:24:08;10.00;99.90
3944;DHT22;1986;52.546;13.428;2023-04-01T04:26:35;10.00;99.90
3944;DHT22;1986;52.546;13.428;2023-04-01T04:29:02;10.00;99.90
3944;DHT22;1986;52.546;13.428;2023-04-01T04:31:29;10.00;99.90
3944;DHT22;1986;52.546;13.428;2023-04-01T04:33:58;10.00;99.90
3944;DHT22;1986;52.546;13.428;2023-04-01T04:36:25;10.00;99.90
3944;DHT22;1986;52.546;13.428;2023-04-01T04:38:51;9.90;99.90
3944;DHT22;1986;52.546;13.428;2023-04-01T04:41:20;9.90;99.90
3944;DHT22;1986;52.546;13.428;2023-04-01T04:43:49;10.00;99.90
3944;DHT22;1986;52.546;13.428;2023-04-01T04:46:18;10.00;99.90
3944;DHT22;1986;52.546;13.428;2023-04-01T04:48:45;10.00;99.90
3944;DHT22;1986;52.546;13.428;2023-04-01T04:51:16;9.90;99.90
3944;DHT22;1986;52.546;13.428;2023-04-01T04:53:43;9.90;99.90
3944;DHT22;1986;52.546;13.428;2023-04-01T04:56:10;9.90;99.90
3944;DHT22;1986;52.546;13.428;2023-04-01T04:58:39;9.90;99.90
3944;DHT22;1986;52.546;13.428;2023-04-01T05:01:08;9.90;99.90
3944;DHT22;1986;52.546;13.428;2023-04-01T05:03:36;9.90;99.90
3944;DHT22;1986;52.546;13.428;2023-04-01T05:06:04;10.00;99.90
3944;DHT22;1986;52.546;13.428;2023-04-01T05:08:31;10.00;99.90
3944;DHT22;1986;52.546;13.428;2023-04-01T05:10:59;10.00;99.90
3944;DHT22;1986;52.546;13.428;2023-04-01T05:13:26;10.00;99.90
3944;DHT22;1986;52.546;13.428;2023-04-01T05:15:55;10.00;99.90
3944;DHT22;1986;52.546;13.428;2023-04-01T05:18:22;10.00;99.90
3944;DHT22;1986;52.546;13.428;2023-04-01T05:20:50;10.00;99.90
3944;DHT22;1986;52.546;13.428;2023-04-01T05:23:18;10.10;99.90
3944;DHT22;1986;52.546;13.428;2023-04-01T05:25:46;10.10;99.90
3944;DHT22;1986;52.546;13.428;2023-04-01T05:28:13;10.10;99.90
3944;DHT22;1986;52.546;13.428;2023-04-01T05:30:41;10.10;99.90
3944;DHT22;1986;52.546;13.428;2023-04-01T05:33:11;10.10;99.90
3944;DHT22;1986;52.546;13.428;2023-04-01T05:35:38;10.10;99.90
3944;DHT22;1986;52.546;13.428;2023-04-01T05:38:05;10.10;99.90
3944;DHT22;1986;52.546;13.428;2023-04-01T05:40:32;10.20;99.90
3944;DHT22;1986;52.546;13.428;2023-04-01T05:42:59;10.20;99.90
3944;DHT22;1986;52.546;13.428;2023-04-01T05:45:26;10.20;99.90
3944;DHT22;1986;52.546;13.428;2023-04-01T05:47:53;10.20;99.90
3944;DHT22;1986;52.546;13.428;2023-04-01T05:50:23;10.20;99.90
3944;DHT22;1986;52.546;13.428;2023-04-01T05:52:50;10.20;99.90
3944;DHT22;1986;52.546;13.428;2023-04-01T05:55:17;10.20;99.90
3944;DHT22;1986;52.546;13.428;2023-04-01T05:57:45;10.20;99.90
3944;DHT22;1986;52.546;13.428;2023-04-01T06:00:14;10.20;99.90
3944;DHT22;1986;52.546;13.428;2023-04-01T06:02:42;10.20;99.90
3944;DHT22;1986;52.546;13.428;2023-04-01T06:05:15;10.20;99.90
3944;DHT22;1986;52.546;13.428;2023-04-01T06:07:45;10.30;99.90
3944;DHT22;1986;52.546;13.428;2023-04-01T06:10:14;10.30;99.90
3944;DHT22;1986;52.546;13.428;2023-04-01T06:13:02;10.20;99.90
3944;DHT22;1986;52.546;13.428;2023-04-01T06:15:36;10.30;99.90
3944;DHT22;1986;52.546;13.428;2023-04-01T06:21:47;10.30;99.90
3944;DHT22;1986;52.546;13.428;2023-04-01T06:24:37;10.30;99.90
3944;DHT22;1986;52.546;13.428;2023-04-01T06:27:17;10.30;99.90
3944;DHT22;1986;52.546;13.428;2023-04-01T06:29:56;10.30;99.90
3944;DHT22;1986;52.546;13.428;2023-04-01T06:35:55;10.30;99.90
3944;DHT22;1986;52.546;13.428;2023-04-01T06:38:41;10.30;99.90
3944;DHT22;1986;52.546;13.428;2023-04-01T06:41:39;10.30;99.90
3944;DHT22;1986;52.546;13.428;2023-04-01T06:44:16;10.30;99.90
3944;DHT22;1986;52.546;13.428;2023-04-01T06:46:47;10.20;99.90
3944;DHT22;1986;52.546;13.428;2023-04-01T06:49:36;10.30;99.90
3944;DHT22;1986;52.546;13.428;2023-04-01T06:52:17;10.30;99.90
3944;DHT22;1986;52.546;13.428;2023-04-01T06:54:49;10.30;99.90
3944;DHT22;1986;52.546;13.428;2023-04-01T06:57:24;10.30;99.90
3944;DHT22;1986;52.546;13.428;2023-04-01T06:59:55;10.40;99.90
3944;DHT22;1986;52.546;13.428;2023-04-01T07:02:28;10.40;99.90
3944;DHT22;1986;52.546;13.428;2023-04-01T07:04:59;10.50;99.90
3944;DHT22;1986;52.546;13.428;2023-04-01T07:07:34;10.50;99.90
3944;DHT22;1986;52.546;13.428;2023-04-01T07:10:05;10.50;99.90
3944;DHT22;1986;52.546;13.428;2023-04-01T07:12:46;10.50;99.90
3944;DHT22;1986;52.546;13.428;2023-04-01T07:15:18;10.50;99.90
3944;DHT22;1986;52.546;13.428;2023-04-01T07:17:48;10.50;99.90
3944;DHT22;1986;52.546;13.428;2023-04-01T07:20:22;10.50;99.90
3944;DHT22;1986;52.546;13.428;2023-04-01T07:22:54;10.60;99.90
3944;DHT22;1986;52.546;13.428;2023-04-01T07:25:25;10.60;99.90
3944;DHT22;1986;52.546;13.428;2023-04-01T07:27:59;10.70;99.90
3944;DHT22;1986;52.546;13.428;2023-04-01T07:30:30;10.70;99.90
3944;DHT22;1986;52.546;13.428;2023-04-01T07:33:05;10.70;99.90
3944;DHT22;1986;52.546;13.428;2023-04-01T07:35:38;10.70;99.90
3944;DHT22;1986;52.546;13.428;2023-04-01T07:38:14;10.60;99.90
3944;DHT22;1986;52.546;13.428;2023-04-01T07:40:48;10.60;99.90
3944;DHT22;1986;52.546;13.428;2023-04-01T07:43:30;10.60;99.90
3944;DHT22;1986;52.546;13.428;2023-04-01T07:46:07;10.50;99.90
3944;DHT22;1986;52.546;13.428;2023-04-01T07:48:43;10.30;99.90
3944;DHT22;1986;52.546;13.428;2023-04-01T07:51:18;10.20;99.90
3944;DHT22;1986;52.546;13.428;2023-04-01T07:53:50;10.40;99.90
3944;DHT22;1986;52.546;13.428;2023-04-01T07:56:25;10.70;99.90
3944;DHT22;1986;52.546;13.428;2023-04-01T07:58:59;11.00;99.90
3944;DHT22;1986;52.546;13.428;2023-04-01T08:01:32;11.20;99.90
3944;DHT22;1986;52.546;13.428;2023-04-01T08:04:14;11.00;99.90
3944;DHT22;1986;52.546;13.428;2023-04-01T08:06:49;10.90;99.90
3944;DHT22;1986;52.546;13.428;2023-04-01T08:09:23;10.70;99.90
3944;DHT22;1986;52.546;13.428;2023-04-01T08:12:01;11.00;99.90
3944;DHT22;1986;52.546;13.428;2023-04-01T08:14:38;11.20;99.90
3944;DHT22;1986;52.546;13.428;2023-04-01T08:17:12;11.30;99.90
3944;DHT22;1986;52.546;13.428;2023-04-01T08:19:55;11.30;99.90
3944;DHT22;1986;52.546;13.428;2023-04-01T08:22:27;11.40;99.90
3944;DHT22;1986;52.546;13.428;2023-04-01T08:24:58;11.30;99.90
3944;DHT22;1986;52.546;13.428;2023-04-01T08:27:34;11.20;99.90
3944;DHT22;1986;52.546;13.428;2023-04-01T08:30:06;11.30;99.90
3944;DHT22;1986;52.546;13.428;2023-04-01T08:32:43;11.40;99.90
3944;DHT22;1986;52.546;13.428;2023-04-01T08:35:20;11.50;99.90
3944;DHT22;1986;52.546;13.428;2023-04-01T08:37:48;11.50;99.90
3944;DHT22;1986;52.546;13.428;2023-04-01T08:43:19;11.50;99.90
3944;DHT22;1986;52.546;13.428;2023-04-01T08:46:05;11.30;99.90
3944;DHT22;1986;52.546;13.428;2023-04-01T08:48:56;11.20;99.90
3944;DHT22;1986;52.546;13.428;2023-04-01T08:52:00;11.20;99.90
3944;DHT22;1986;52.546;13.428;2023-04-01T08:54:47;11.20;99.90
3944;DHT22;1986;52.546;13.428;2023-04-01T08:57:31;11.30;99.90
3944;DHT22;1986;52.546;13.428;2023-04-01T09:00:14;11.40;99.90
3944;DHT22;1986;52.546;13.428;2023-04-01T09:03:10;11.30;99.90
3944;DHT22;1986;52.546;13.428;2023-04-01T09:06:22;11.40;99.90
3944;DHT22;1986;52.546;13.428;2023-04-01T09:12:06;11.50;99.90
3944;DHT22;1986;52.546;13.428;2023-04-01T09:14:54;11.30;99.90
3944;DHT22;1986;52.546;13.428;2023-04-01T09:20:49;11.20;99.90
3944;DHT22;1986;52.546;13.428;2023-04-01T09:23:33;11.30;99.90
3944;DHT22;1986;52.546;13.428;2023-04-01T09:26:14;11.40;99.90
3944;DHT22;1986;52.546;13.428;2023-04-01T09:28:49;11.30;99.90
3944;DHT22;1986;52.546;13.428;2023-04-01T09:34:28;11.20;99.90
3944;DHT22;1986;52.546;13.428;2023-04-01T09:37:15;11.00;99.90
3944;DHT22;1986;52.546;13.428;2023-04-01T09:39:57;11.10;99.90
3944;DHT22;1986;52.546;13.428;2023-04-01T09:42:42;11.10;99.90
3944;DHT22;1986;52.546;13.428;2023-04-01T09:45:21;11.20;99.90
3944;DHT22;1986;52.546;13.428;2023-04-01T09:48:02;11.20;99.90
3944;DHT22;1986;52.546;13.428;2023-04-01T09:50:35;11.10;99.90
3944;DHT22;1986;52.546;13.428;2023-04-01T09:53:24;11.00;99.90
3944;DHT22;1986;52.546;13.428;2023-04-01T09:59:15;11.00;99.90
3944;DHT22;1986;52.546;13.428;2023-04-01T10:05:19;11.00;99.90
3944;DHT22;1986;52.546;13.428;2023-04-01T10:14:15;10.80;99.90
3944;DHT22;1986;52.546;13.428;2023-04-01T10:17:19;10.70;99.90
3944;DHT22;1986;52.546;13.428;2023-04-01T10:20:02;10.80;99.90
3944;DHT22;1986;52.546;13.428;2023-04-01T10:26:05;10.60;99.90
3944;DHT22;1986;52.546;13.428;2023-04-01T10:31:55;10.50;99.90
3944;DHT22;1986;52.546;13.428;2023-04-01T10:34:56;10.50;99.90
3944;DHT22;1986;52.546;13.428;2023-04-01T10:37:49;10.50;99.90
3944;DHT22;1986;52.546;13.428;2023-04-01T10:40:53;10.40;99.90
3944;DHT22;1986;52.546;13.428;2023-04-01T10:47:11;10.30;99.90
3944;DHT22;1986;52.546;13.428;2023-04-01T10:53:10;10.50;99.90
3944;DHT22;1986;52.546;13.428;2023-04-01T10:56:00;10.50;99.90
3944;DHT22;1986;52.546;13.428;2023-04-01T10:58:58;10.50;99.90
3944;DHT22;1986;52.546;13.428;2023-04-01T11:04:57;10.60;99.90
3944;DHT22;1986;52.546;13.428;2023-04-01T11:08:04;10.50;99.90
3944;DHT22;1986;52.546;13.428;2023-04-01T11:26:54;10.30;99.90
3944;DHT22;1986;52.546;13.428;2023-04-01T11:29:48;10.30;99.90
3944;DHT22;1986;52.546;13.428;2023-04-01T11:32:38;10.40;99.90
3944;DHT22;1986;52.546;13.428;2023-04-01T11:35:48;10.40;99.90
3944;DHT22;1986;52.546;13.428;2023-04-01T11:38:31;10.30;99.90
3944;DHT22;1986;52.546;13.428;2023-04-01T11:41:18;10.40;99.90
3944;DHT22;1986;52.546;13.428;2023-04-01T11:44:03;10.20;99.90
3944;DHT22;1986;52.546;13.428;2023-04-01T11:46:47;10.10;99.90
3944;DHT22;1986;52.546;13.428;2023-04-01T11:49:29;10.00;99.90
3944;DHT22;1986;52.546;13.428;2023-04-01T11:52:08;10.10;99.90
3944;DHT22;1986;52.546;13.428;2023-04-01T11:54:53;10.10;99.90
3944;DHT22;1986;52.546;13.428;2023-04-01T11:57:43;10.20;99.90
3944;DHT22;1986;52.546;13.428;2023-04-01T12:00:33;10.10;99.90
3944;DHT22;1986;52.546;13.428;2023-04-01T12:03:18;10.00;99.90
3944;DHT22;1986;52.546;13.428;2023-04-01T12:05:53;10.00;99.90
3944;DHT22;1986;52.546;13.428;2023-04-01T12:08:53;9.90;99.90
3944;DHT22;1986;52.546;13.428;2023-04-01T12:11:34;9.70;99.90
3944;DHT22;1986;52.546;13.428;2023-04-01T12:20:36;9.40;99.90
3944;DHT22;1986;52.546;13.428;2023-04-01T12:23:28;9.40;99.90
3944;DHT22;1986;52.546;13.428;2023-04-01T12:26:19;9.60;99.90
3944;DHT22;1986;52.546;13.428;2023-04-01T12:29:07;9.60;99.90
3944;DHT22;1986;52.546;13.428;2023-04-01T12:31:48;9.60;99.90
3944;DHT22;1986;52.546;13.428;2023-04-01T12:37:18;9.70;99.90
3944;DHT22;1986;52.546;13.428;2023-04-01T12:40:02;9.80;99.90
3944;DHT22;1986;52.546;13.428;2023-04-01T12:45:31;9.70;99.90
3944;DHT22;1986;52.546;13.428;2023-04-01T12:48:29;9.60;99.90
3944;DHT22;1986;52.546;13.428;2023-04-01T12:54:48;9.60;99.90
3944;DHT22;1986;52.546;13.428;2023-04-01T12:57:35;9.60;99.90
3944;DHT22;1986;52.546;13.428;2023-04-01T13:00:30;9.50;99.90
3944;DHT22;1986;52.546;13.428;2023-04-01T13:03:27;9.30;99.90
3944;DHT22;1986;52.546;13.428;2023-04-01T13:06:38;9.20;99.90
3944;DHT22;1986;52.546;13.428;2023-04-01T13:09:29;9.20;99.90
3944;DHT22;1986;52.546;13.428;2023-04-01T13:12:36;9.20;99.90
3944;DHT22;1986;52.546;13.428;2023-04-01T13:15:19;9.20;99.90
3944;DHT22;1986;52.546;13.428;2023-04-01T13:17:53;9.20;99.90
3944;DHT22;1986;52.546;13.428;2023-04-01T13:20:32;9.30;99.90
3944;DHT22;1986;52.546;13.428;2023-04-01T13:23:14;9.20;99.90
3944;DHT22;1986;52.546;13.428;2023-04-01T13:25:50;9.10;99.90
3944;DHT22;1986;52.546;13.428;2023-04-01T13:31:42;8.90;99.90
3944;DHT22;1986;52.546;13.428;2023-04-01T13:34:35;8.90;99.90
3944;DHT22;1986;52.546;13.428;2023-04-01T13:37:20;8.80;99.90
3944;DHT22;1986;52.546;13.428;2023-04-01T13:40:02;8.90;99.90
3944;DHT22;1986;52.546;13.428;2023-04-01T13:42:40;8.90;99.90
3944;DHT22;1986;52.546;13.428;2023-04-01T13:45:15;8.80;99.90
3944;DHT22;1986;52.546;13.428;2023-04-01T13:57:36;8.80;99.90
3944;DHT22;1986;52.546;13.428;2023-04-01T14:00:19;8.80;99.90
3944;DHT22;1986;52.546;13.428;2023-04-01T14:03:11;8.70;99.90
3944;DHT22;1986;52.546;13.428;2023-04-01T14:05:50;8.60;99.90
3944;DHT22;1986;52.546;13.428;2023-04-01T14:08:50;8.60;99.90
3944;DHT22;1986;52.546;13.428;2023-04-01T14:11:25;8.50;99.90
3944;DHT22;1986;52.546;13.428;2023-04-01T14:14:08;8.50;99.90
3944;DHT22;1986;52.546;13.428;2023-04-01T14:17:24;8.50;99.90
3944;DHT22;1986;52.546;13.428;2023-04-01T14:20:20;8.50;99.90
3944;DHT22;1986;52.546;13.428;2023-04-01T14:23:02;8.50;99.90
3944;DHT22;1986;52.546;13.428;2023-04-01T14:25:46;8.60;99.90
3944;DHT22;1986;52.546;13.428;2023-04-01T14:28:22;8.60;99.90
3944;DHT22;1986;52.546;13.428;2023-04-01T14:31:00;8.60;99.90
3944;DHT22;1986;52.546;13.428;2023-04-01T14:33:40;8.40;99.90
3944;DHT22;1986;52.546;13.428;2023-04-01T14:36:35;8.50;99.90
3944;DHT22;1986;52.546;13.428;2023-04-01T14:39:20;8.50;99.90
3944;DHT22;1986;52.546;13.428;2023-04-01T14:41:54;8.30;99.90
3944;DHT22;1986;52.546;13.428;2023-04-01T14:44:52;8.40;99.90
3944;DHT22;1986;52.546;13.428;2023-04-01T14:47:41;8.40;99.90
3944;DHT22;1986;52.546;13.428;2023-04-01T14:50:13;8.40;99.90
3944;DHT22;1986;52.546;13.428;2023-04-01T14:52:44;8.30;99.90
3944;DHT22;1986;52.546;13.428;2023-04-01T14:55:25;8.20;99.90
3944;DHT22;1986;52.546;13.428;2023-04-01T14:58:00;8.20;99.90
3944;DHT22;1986;52.546;13.428;2023-04-01T15:00:48;8.20;99.90
3944;DHT22;1986;52.546;13.428;2023-04-01T15:03:26;8.20;99.90
3944;DHT22;1986;52.546;13.428;2023-04-01T15:06:12;8.20;99.90
3944;DHT22;1986;52.546;13.428;2023-04-01T15:08:50;8.20;99.90
3944;DHT22;1986;52.546;13.428;2023-04-01T15:11:29;8.30;99.90
3944;DHT22;1986;52.546;13.428;2023-04-01T15:14:15;8.30;99.90
3944;DHT22;1986;52.546;13.428;2023-04-01T15:16:55;8.10;99.90
3944;DHT22;1986;52.546;13.428;2023-04-01T15:19:29;7.90;99.90
3944;DHT22;1986;52.546;13.428;2023-04-01T15:22:18;7.90;99.90
3944;DHT22;1986;52.546;13.428;2023-04-01T15:24:52;7.90;99.90
3944;DHT22;1986;52.546;13.428;2023-04-01T15:27:31;7.90;99.90
3944;DHT22;1986;52.546;13.428;2023-04-01T15:30:23;7.80;99.90
3944;DHT22;1986;52.546;13.428;2023-04-01T15:36:06;7.80;99.90
3944;DHT22;1986;52.546;13.428;2023-04-01T15:38:50;7.70;99.90
3944;DHT22;1986;52.546;13.428;2023-04-01T15:41:22;7.70;99.90
3944;DHT22;1986;52.546;13.428;2023-04-01T15:43:50;7.70;99.90
3944;DHT22;1986;52.546;13.428;2023-04-01T15:46:36;7.60;99.90
3944;DHT22;1986;52.546;13.428;2023-04-01T15:49:30;7.60;99.90
3944;DHT22;1986;52.546;13.428;2023-04-01T15:52:13;7.60;99.90
3944;DHT22;1986;52.546;13.428;2023-04-01T15:55:15;7.60;99.90
3944;DHT22;1986;52.546;13.428;2023-04-01T15:57:54;7.60;99.90
3944;DHT22;1986;52.546;13.428;2023-04-01T16:00:31;7.60;99.90
3944;DHT22;1986;52.546;13.428;2023-04-01T16:03:15;7.40;99.90
3944;DHT22;1986;52.546;13.428;2023-04-01T16:05:53;7.40;99.90
3944;DHT22;1986;52.546;13.428;2023-04-01T16:11:23;7.40;99.90
3944;DHT22;1986;52.546;13.428;2023-04-01T16:14:00;7.40;99.90
3944;DHT22;1986;52.546;13.428;2023-04-01T16:16:44;7.30;99.90
3944;DHT22;1986;52.546;13.428;2023-04-01T16:22:13;7.20;99.90
3944;DHT22;1986;52.546;13.428;2023-04-01T16:24:48;7.10;99.90
3944;DHT22;1986;52.546;13.428;2023-04-01T16:27:23;7.00;99.90
3944;DHT22;1986;52.546;13.428;2023-04-01T16:29:55;7.10;99.90
3944;DHT22;1986;52.546;13.428;2023-04-01T16:32:37;7.10;99.90
3944;DHT22;1986;52.546;13.428;2023-04-01T16:35:35;7.10;99.90
3944;DHT22;1986;52.546;13.428;2023-04-01T16:38:15;7.10;99.90
3944;DHT22;1986;52.546;13.428;2023-04-01T16:40:49;7.10;99.90
3944;DHT22;1986;52.546;13.428;2023-04-01T16:43:25;7.00;99.90
3944;DHT22;1986;52.546;13.428;2023-04-01T16:46:05;6.90;99.90
3944;DHT22;1986;52.546;13.428;2023-04-01T16:48:49;7.00;99.90
3944;DHT22;1986;52.546;13.428;2023-04-01T16:51:19;7.00;99.90
3944;DHT22;1986;52.546;13.428;2023-04-01T16:53:49;6.90;99.90
3944;DHT22;1986;52.546;13.428;2023-04-01T16:56:23;6.80;99.90
3944;DHT22;1986;52.546;13.428;2023-04-01T16:58:58;6.70;99.90
3944;DHT22;1986;52.546;13.428;2023-04-01T17:01:31;6.70;99.90
3944;DHT22;1986;52.546;13.428;2023-04-01T17:04:08;6.80;99.90
3944;DHT22;1986;52.546;13.428;2023-04-01T17:06:44;6.70;99.90
3944;DHT22;1986;52.546;13.428;2023-04-01T17:09:25;6.60;99.90
3944;DHT22;1986;52.546;13.428;2023-04-01T17:11:59;6.60;99.90
3944;DHT22;1986;52.546;13.428;2023-04-01T17:14:35;6.60;99.90
3944;DHT22;1986;52.546;13.428;2023-04-01T17:17:19;6.50;99.90
3944;DHT22;1986;52.546;13.428;2023-04-01T17:20:06;6.50;99.90
3944;DHT22;1986;52.546;13.428;2023-04-01T17:22:44;6.40;99.90
3944;DHT22;1986;52.546;13.428;2023-04-01T17:25:25;6.30;99.90
3944;DHT22;1986;52.546;13.428;2023-04-01T17:27:59;6.30;99.90
3944;DHT22;1986;52.546;13.428;2023-04-01T17:30:34;6.30;99.90
3944;DHT22;1986;52.546;13.428;2023-04-01T17:33:34;6.30;99.90
3944;DHT22;1986;52.546;13.428;2023-04-01T17:36:09;6.20;99.90
3944;DHT22;1986;52.546;13.428;2023-04-01T17:38:56;6.20;99.90
3944;DHT22;1986;52.546;13.428;2023-04-01T17:41:40;6.10;99.90
3944;DHT22;1986;52.546;13.428;2023-04-01T17:44:22;6.00;99.90
3944;DHT22;1986;52.546;13.428;2023-04-01T17:50:20;6.00;99.90
3944;DHT22;1986;52.546;13.428;2023-04-01T17:52:57;6.00;99.90
3944;DHT22;1986;52.546;13.428;2023-04-01T17:55:46;6.00;99.90
3944;DHT22;1986;52.546;13.428;2023-04-01T17:58:20;5.90;99.90
3944;DHT22;1986;52.546;13.428;2023-04-01T18:00:58;5.90;99.90
3944;DHT22;1986;52.546;13.428;2023-04-01T18:03:55;5.90;99.90
3944;DHT22;1986;52.546;13.428;2023-04-01T18:06:31;5.80;99.90
3944;DHT22;1986;52.546;13.428;2023-04-01T18:09:08;5.80;99.90
3944;DHT22;1986;52.546;13.428;2023-04-01T18:11:48;5.80;99.90
3944;DHT22;1986;52.546;13.428;2023-04-01T18:14:31;5.80;99.90
3944;DHT22;1986;52.546;13.428;2023-04-01T18:17:21;5.70;99.90
3944;DHT22;1986;52.546;13.428;2023-04-01T18:20:06;5.70;99.90
3944;DHT22;1986;52.546;13.428;2023-04-01T18:22:40;5.70;99.90
3944;DHT22;1986;52.546;13.428;2023-04-01T18:25:17;5.70;99.90
3944;DHT22;1986;52.546;13.428;2023-04-01T18:27:48;5.70;99.90
3944;DHT22;1986;52.546;13.428;2023-04-01T18:30:26;5.60;99.90
3944;DHT22;1986;52.546;13.428;2023-04-01T18:32:59;5.60;99.90
3944;DHT22;1986;52.546;13.428;2023-04-01T18:35:35;5.60;99.90
3944;DHT22;1986;52.546;13.428;2023-04-01T18:38:13;5.60;99.90
3944;DHT22;1986;52.546;13.428;2023-04-01T18:40:43;5.60;99.90
3944;DHT22;1986;52.546;13.428;2023-04-01T18:43:21;5.60;99.90